Time;durP1;ratioP1;P1;durP2;ratioP2;P2;SDS_P1;SDS_P2;PMS_P1;PMS_P2;Temp;Humidity;BMP_temperature;BMP_pressure;BME280_temperature;BME280_humidity;BME280_pressure;Samples;Min_cycle;Max_cycle;Signal;HPM_P1;HPM_P2
2024/02/14 00:00:16;;;;;;;9.30;3.53;;;;;;;;;;5023581;28;20033;-75
2024/02/14 00:02:49;;;;;;;7.38;3.90;;;;;;;;;;5025460;28;20025;-74
2024/02/14 00:05:14;;;;;;;8.50;4.30;;;;;;;;;;5024312;28;20040;-74
2024/02/14 00:07:39;;;;;;;6.85;3.95;;;;;;;;;;5026940;28;20124;-74
2024/02/14 00:10:05;;;;;;;8.48;4.15;;;;;;;;;;5026997;28;20117;-74
2024/02/14 00:12:31;;;;;;;6.78;3.47;;;;;;;;;;5025902;28;20029;-75
2024/02/14 00:14:57;;;;;;;10.20;5.07;;;;;;;;;;5019404;28;20092;-74
2024/02/14 00:17:22;;;;;;;7.68;4.05;;;;;;;;;;5028161;28;20076;-74
2024/02/14 00:19:48;;;;;;;9.63;5.07;;;;;;;;;;5024806;28;20060;-75
2024/02/14 00:22:13;;;;;;;8.70;5.15;;;;;;;;;;5026406;28;20083;-74
2024/02/14 00:24:39;;;;;;;7.90;3.53;;;;;;;;;;5028302;28;20096;-74
2024/02/14 00:27:04;;;;;;;6.65;3.60;;;;;;;;;;5022533;28;20544;-75
2024/02/14 00:29:29;;;;;;;7.18;3.75;;;;;;;;;;5022783;28;20021;-74
2024/02/14 00:31:54;;;;;;;11.00;4.07;;;;;;;;;;5022354;28;20040;-74
2024/02/14 00:34:20;;;;;;;8.15;4.07;;;;;;;;;;5027004;28;20025;-74
2024/02/14 00:36:46;;;;;;;6.93;3.55;;;;;;;;;;5030426;28;20025;-74
2024/02/14 00:39:11;;;;;;;6.05;3.00;;;;;;;;;;5032155;28;20520;-74
2024/02/14 00:41:36;;;;;;;6.82;3.85;;;;;;;;;;5026222;28;20457;-74
2024/02/14 00:44:03;;;;;;;6.53;3.53;;;;;;;;;;5023234;28;20041;-74
2024/02/14 00:46:28;;;;;;;7.50;4.80;;;;;;;;;;5028492;28;20091;-74
2024/02/14 00:48:54;;;;;;;8.95;3.72;;;;;;;;;;5028318;28;20036;-74
2024/02/14 00:51:19;;;;;;;8.60;3.65;;;;;;;;;;5030835;28;20037;-74
2024/02/14 00:53:44;;;;;;;7.07;4.20;;;;;;;;;;5027895;28;20029;-74
2024/02/14 00:56:10;;;;;;;9.80;4.30;;;;;;;;;;5022777;28;20029;-74
2024/02/14 00:58:35;;;;;;;10.82;4.45;;;;;;;;;;5027187;28;20020;-74
2024/02/14 01:01:01;;;;;;;7.20;3.92;;;;;;;;;;5026056;28;20089;-74
2024/02/14 01:03:26;;;;;;;7.22;4.30;;;;;;;;;;5033263;28;20038;-74
2024/02/14 01:05:51;;;;;;;8.55;4.38;;;;;;;;;;5030649;28;20030;-74
2024/02/14 01:08:17;;;;;;;7.90;3.58;;;;;;;;;;5024940;28;20049;-74
2024/02/14 01:10:42;;;;;;;8.10;4.13;;;;;;;;;;5025542;28;20126;-74
2024/02/14 01:13:07;;;;;;;6.68;4.22;;;;;;;;;;5024543;28;20038;-74
2024/02/14 01:15:33;;;;;;;7.60;4.07;;;;;;;;;;5028474;28;20045;-74
2024/02/14 01:17:58;;;;;;;9.32;4.07;;;;;;;;;;5028996;28;20045;-74
2024/02/14 01:20:24;;;;;;;8.52;4.18;;;;;;;;;;5030938;28;20025;-74
2024/02/14 01:22:49;;;;;;;7.30;3.70;;;;;;;;;;5027699;28;20021;-74
2024/02/14 01:25:14;;;;;;;7.30;3.95;;;;;;;;;;5023632;28;20517;-74
2024/02/14 01:27:41;;;;;;;8.57;3.88;;;;;;;;;;5026058;28;20505;-74
2024/02/14 01:30:06;;;;;;;8.50;3.67;;;;;;;;;;5026070;28;20037;-74
2024/02/14 01:32:31;;;;;;;7.53;3.72;;;;;;;;;;5026750;28;20033;-74
2024/02/14 01:34:57;;;;;;;7.63;3.67;;;;;;;;;;5022281;28;20112;-74
2024/02/14 01:37:22;;;;;;;8.32;3.78;;;;;;;;;;5021118;28;20064;-74
2024/02/14 01:39:47;;;;;;;7.82;3.60;;;;;;;;;;5025360;28;20035;-74
2024/02/14 01:42:12;;;;;;;8.50;4.05;;;;;;;;;;5025513;28;20030;-74
2024/02/14 01:44:37;;;;;;;9.93;3.50;;;;;;;;;;5028598;28;20044;-74
2024/02/14 01:47:03;;;;;;;8.07;3.53;;;;;;;;;;5029303;28;20098;-74
2024/02/14 01:49:28;;;;;;;7.05;3.42;;;;;;;;;;5027565;28;20036;-74
2024/02/14 01:51:55;;;;;;;5.20;2.88;;;;;;;;;;5025925;28;20018;-74
2024/02/14 01:54:20;;;;;;;6.25;3.13;;;;;;;;;;5024724;28;20390;-74
2024/02/14 01:56:45;;;;;;;7.15;3.10;;;;;;;;;;5027226;28;20033;-74
2024/02/14 01:59:10;;;;;;;5.88;2.78;;;;;;;;;;5033259;28;20117;-74
2024/02/14 02:01:36;;;;;;;8.35;4.18;;;;;;;;;;5029777;28;20239;-73
2024/02/14 02:04:01;;;;;;;6.50;3.60;;;;;;;;;;5027222;28;20458;-74
2024/02/14 02:06:27;;;;;;;6.25;3.03;;;;;;;;;;5024003;28;20037;-74
2024/02/14 02:08:52;;;;;;;5.45;2.85;;;;;;;;;;5024859;28;20108;-73
2024/02/14 02:11:17;;;;;;;8.23;3.92;;;;;;;;;;5031698;28;20107;-74
2024/02/14 02:13:43;;;;;;;5.72;3.03;;;;;;;;;;5028780;28;20042;-73
2024/02/14 02:16:08;;;;;;;7.78;3.50;;;;;;;;;;5028522;28;20065;-74
2024/02/14 02:18:34;;;;;;;7.20;3.35;;;;;;;;;;5023988;28;20108;-74
2024/02/14 02:20:59;;;;;;;6.30;3.65;;;;;;;;;;5022324;28;20033;-74
2024/02/14 02:23:24;;;;;;;5.72;2.90;;;;;;;;;;5025611;28;20033;-74
2024/02/14 02:25:50;;;;;;;5.63;2.67;;;;;;;;;;5026941;28;20040;-74
2024/02/14 02:28:15;;;;;;;7.03;2.95;;;;;;;;;;5028857;28;20061;-74
2024/02/14 02:30:40;;;;;;;8.15;3.97;;;;;;;;;;5030001;28;20536;-74
2024/02/14 02:33:07;;;;;;;4.38;2.17;;;;;;;;;;5025514;28;20610;-74
2024/02/14 02:35:32;;;;;;;7.57;2.63;;;;;;;;;;5025069;28;20061;-74
2024/02/14 02:37:57;;;;;;;5.38;2.58;;;;;;;;;;5024625;28;20110;-74
2024/02/14 02:40:24;;;;;;;6.78;3.40;;;;;;;;;;5033039;28;20025;-74
2024/02/14 02:42:50;;;;;;;5.75;2.80;;;;;;;;;;5028970;28;20048;-74
2024/02/14 02:45:15;;;;;;;5.63;2.50;;;;;;;;;;5026702;28;20084;-74
2024/02/14 02:47:40;;;;;;;6.30;2.58;;;;;;;;;;5022738;28;20482;-74
2024/02/14 02:50:06;;;;;;;4.95;2.90;;;;;;;;;;5022261;28;20017;-74
2024/02/14 02:52:31;;;;;;;5.97;3.00;;;;;;;;;;5026737;28;20537;-74
2024/02/14 02:54:56;;;;;;;7.43;2.50;;;;;;;;;;5026687;28;20041;-74
2024/02/14 02:57:21;;;;;;;5.43;2.78;;;;;;;;;;5029192;28;20428;-74
2024/02/14 02:59:48;;;;;;;5.55;2.10;;;;;;;;;;5026211;28;20088;-74
2024/02/14 03:02:13;;;;;;;6.07;2.40;;;;;;;;;;5023561;28;20026;-74
2024/02/14 03:04:39;;;;;;;4.07;2.08;;;;;;;;;;5025482;28;20048;-74
2024/02/14 03:07:06;;;;;;;5.22;2.13;;;;;;;;;;5023739;28;20530;-74
2024/02/14 03:09:32;;;;;;;5.00;2.17;;;;;;;;;;5027127;28;20033;-74
2024/02/14 03:11:57;;;;;;;4.55;2.13;;;;;;;;;;5028856;28;20028;-74
2024/02/14 03:14:22;;;;;;;4.57;2.35;;;;;;;;;;5018910;28;20034;-74
2024/02/14 03:16:48;;;;;;;5.47;2.20;;;;;;;;;;5022702;28;20037;-74
2024/02/14 03:19:13;;;;;;;5.97;2.58;;;;;;;;;;5023738;28;20049;-74
2024/02/14 03:21:38;;;;;;;5.22;2.50;;;;;;;;;;5026533;28;20044;-74
2024/02/14 03:24:05;;;;;;;5.45;2.80;;;;;;;;;;5026995;28;20030;-74
2024/02/14 03:26:33;;;;;;;5.72;2.55;;;;;;;;;;5025843;28;20410;-74
2024/02/14 03:28:58;;;;;;;5.35;2.78;;;;;;;;;;5021082;28;20021;-74
2024/02/14 03:31:25;;;;;;;8.75;3.00;;;;;;;;;;5021457;28;20482;-74
2024/02/14 03:33:50;;;;;;;7.18;3.40;;;;;;;;;;5025406;28;20037;-74
2024/02/14 03:36:15;;;;;;;6.40;2.83;;;;;;;;;;5026162;28;20026;-76
2024/02/14 03:38:41;;;;;;;6.65;3.20;;;;;;;;;;5024470;28;20029;-75
2024/02/14 03:41:07;;;;;;;6.03;2.75;;;;;;;;;;5021533;28;20087;-75
2024/02/14 03:43:32;;;;;;;6.00;2.75;;;;;;;;;;5022075;28;20490;-75
2024/02/14 03:45:57;;;;;;;8.85;3.13;;;;;;;;;;5023025;28;20040;-75
2024/02/14 03:48:22;;;;;;;8.05;2.95;;;;;;;;;;5025753;28;20033;-75
2024/02/14 03:50:48;;;;;;;5.80;2.30;;;;;;;;;;5026419;28;20505;-75
2024/02/14 03:53:14;;;;;;;9.30;3.13;;;;;;;;;;5028671;28;20075;-75
2024/02/14 03:55:40;;;;;;;5.85;2.45;;;;;;;;;;5020833;28;20113;-74
2024/02/14 03:58:06;;;;;;;6.20;2.08;;;;;;;;;;5020691;28;20593;-75
2024/02/14 04:00:31;;;;;;;4.90;2.50;;;;;;;;;;5024431;28;20044;-75
2024/02/14 04:02:59;;;;;;;5.30;2.22;;;;;;;;;;5036373;28;20041;-75
2024/02/14 04:05:24;;;;;;;6.00;2.40;;;;;;;;;;5027725;28;20045;-74
2024/02/14 04:07:52;;;;;;;7.72;2.83;;;;;;;;;;5027248;28;20033;-75
2024/02/14 04:10:17;;;;;;;5.22;2.05;;;;;;;;;;5021899;28;20018;-75
2024/02/14 04:12:42;;;;;;;6.57;2.45;;;;;;;;;;5027627;28;20036;-74
2024/02/14 04:15:08;;;;;;;6.70;2.80;;;;;;;;;;5026470;28;20084;-75
2024/02/14 04:17:33;;;;;;;4.70;2.40;;;;;;;;;;5030543;28;20625;-75
2024/02/14 04:19:58;;;;;;;7.00;2.53;;;;;;;;;;5029209;28;20045;-74
2024/02/14 04:22:24;;;;;;;5.75;2.22;;;;;;;;;;5029212;28;20034;-75
2024/02/14 04:24:49;;;;;;;7.35;2.03;;;;;;;;;;5025906;28;20079;-75
2024/02/14 04:27:14;;;;;;;4.82;2.38;;;;;;;;;;5027710;28;20034;-75
2024/02/14 04:29:39;;;;;;;4.25;1.92;;;;;;;;;;5029020;28;20036;-75
2024/02/14 04:32:04;;;;;;;5.03;2.30;;;;;;;;;;5029600;28;20108;-75
2024/02/14 04:34:30;;;;;;;4.43;2.10;;;;;;;;;;5034163;28;20033;-75
2024/02/14 04:36:55;;;;;;;4.95;2.00;;;;;;;;;;5027981;28;20109;-75
2024/02/14 04:39:20;;;;;;;5.72;2.72;;;;;;;;;;5024445;28;20037;-75
2024/02/14 04:41:45;;;;;;;5.97;2.17;;;;;;;;;;5027416;28;20548;-75
2024/02/14 04:44:10;;;;;;;5.55;2.40;;;;;;;;;;5027047;28;20036;-74
2024/02/14 04:46:37;;;;;;;6.03;2.22;;;;;;;;;;5030569;28;20398;-75
2024/02/14 04:49:03;;;;;;;7.13;2.47;;;;;;;;;;5031500;28;20522;-75
2024/02/14 04:51:31;;;;;;;4.68;2.28;;;;;;;;;;5023910;28;20304;-75
2024/02/14 04:53:59;;;;;;;4.63;2.00;;;;;;;;;;5025081;28;20121;-74
2024/02/14 04:56:25;;;;;;;4.93;2.35;;;;;;;;;;5027243;28;20061;-74
2024/02/14 04:58:50;;;;;;;4.20;1.80;;;;;;;;;;5028656;28;20368;-74
2024/02/14 05:01:16;;;;;;;4.20;2.22;;;;;;;;;;5029889;28;20132;-75
2024/02/14 05:03:41;;;;;;;4.82;2.17;;;;;;;;;;5034918;28;20031;-75
2024/02/14 05:06:06;;;;;;;5.13;2.15;;;;;;;;;;5021456;28;20033;-75
2024/02/14 05:08:31;;;;;;;6.30;2.00;;;;;;;;;;5026263;28;20091;-75
2024/02/14 05:10:57;;;;;;;6.20;2.35;;;;;;;;;;5026107;28;20029;-75
2024/02/14 05:13:22;;;;;;;4.57;1.92;;;;;;;;;;5028998;28;20521;-75
2024/02/14 05:15:47;;;;;;;7.03;2.55;;;;;;;;;;5026386;28;20026;-74
2024/02/14 05:18:12;;;;;;;3.75;2.00;;;;;;;;;;5023515;28;20442;-75
2024/02/14 05:20:38;;;;;;;4.53;2.10;;;;;;;;;;5024275;28;20044;-75
2024/02/14 05:23:03;;;;;;;4.47;1.75;;;;;;;;;;5022846;28;20026;-75
2024/02/14 05:25:29;;;;;;;5.05;1.88;;;;;;;;;;5028262;28;20033;-75
2024/02/14 05:27:55;;;;;;;4.68;2.28;;;;;;;;;;5028154;28;20057;-75
2024/02/14 05:30:20;;;;;;;6.63;2.55;;;;;;;;;;5026209;28;20072;-75
2024/02/14 05:32:45;;;;;;;4.80;1.92;;;;;;;;;;5029680;28;20025;-75
2024/02/14 05:35:10;;;;;;;5.13;1.60;;;;;;;;;;5026302;28;20033;-75
2024/02/14 05:37:36;;;;;;;5.00;1.88;;;;;;;;;;5025742;28;20541;-75
2024/02/14 05:40:02;;;;;;;7.38;2.58;;;;;;;;;;5026198;28;20034;-75
2024/02/14 05:42:27;;;;;;;6.20;2.15;;;;;;;;;;5027949;28;20029;-75
2024/02/14 05:44:52;;;;;;;7.78;2.13;;;;;;;;;;5023611;28;20033;-75
2024/02/14 05:47:18;;;;;;;3.63;1.52;;;;;;;;;;5021248;28;20469;-75
2024/02/14 05:49:44;;;;;;;5.32;1.83;;;;;;;;;;5025694;28;20041;-75
2024/02/14 05:52:09;;;;;;;5.28;2.10;;;;;;;;;;5024404;28;20026;-75
2024/02/14 05:54:34;;;;;;;4.78;1.90;;;;;;;;;;5028445;28;20088;-75
2024/02/14 05:57:01;;;;;;;4.55;2.03;;;;;;;;;;5024128;28;20037;-74
2024/02/14 05:59:27;;;;;;;5.22;2.53;;;;;;;;;;5023178;28;20030;-75
2024/02/14 06:01:53;;;;;;;5.88;1.98;;;;;;;;;;5019960;28;20034;-75
2024/02/14 06:04:18;;;;;;;4.82;1.83;;;;;;;;;;5024537;28;20494;-75
2024/02/14 06:06:43;;;;;;;7.25;3.58;;;;;;;;;;5020956;28;20556;-75
2024/02/14 06:09:11;;;;;;;6.40;2.88;;;;;;;;;;5025478;28;20065;-75
2024/02/14 06:11:38;;;;;;;5.15;1.75;;;;;;;;;;5028918;28;20083;-75
2024/02/14 06:14:04;;;;;;;4.68;1.65;;;;;;;;;;5023528;28;20022;-75
2024/02/14 06:16:29;;;;;;;3.40;1.88;;;;;;;;;;5021493;28;20052;-75
2024/02/14 06:18:54;;;;;;;6.10;1.70;;;;;;;;;;5022435;28;20060;-75
2024/02/14 06:21:19;;;;;;;3.78;1.80;;;;;;;;;;5026092;28;20084;-75
2024/02/14 06:23:46;;;;;;;4.68;1.75;;;;;;;;;;5025544;28;20116;-75
2024/02/14 06:26:12;;;;;;;4.85;2.03;;;;;;;;;;5026008;28;20051;-74
2024/02/14 06:28:37;;;;;;;6.22;2.22;;;;;;;;;;5021250;28;20034;-75
2024/02/14 06:31:02;;;;;;;5.45;2.08;;;;;;;;;;5018186;28;20037;-75
2024/02/14 06:33:28;;;;;;;4.28;1.98;;;;;;;;;;5027375;28;20021;-75
2024/02/14 06:35:53;;;;;;;6.65;1.65;;;;;;;;;;5026648;28;20021;-75
2024/02/14 06:38:18;;;;;;;4.00;1.48;;;;;;;;;;5025797;28;20489;-75
2024/02/14 06:40:44;;;;;;;4.28;1.35;;;;;;;;;;5029556;28;20060;-75
2024/02/14 06:43:09;;;;;;;4.00;1.95;;;;;;;;;;5020656;28;20075;-75
2024/02/14 06:45:34;;;;;;;5.43;1.58;;;;;;;;;;5024259;28;20029;-75
2024/02/14 06:47:59;;;;;;;3.80;1.48;;;;;;;;;;5025737;28;20482;-76
2024/02/14 06:50:28;;;;;;;4.10;1.70;;;;;;;;;;5027278;28;20030;-75
2024/02/14 06:52:54;;;;;;;5.18;1.48;;;;;;;;;;5025530;28;20041;-75
2024/02/14 06:55:19;;;;;;;5.53;1.40;;;;;;;;;;5026340;28;20026;-75
2024/02/14 06:57:44;;;;;;;2.40;1.30;;;;;;;;;;5023771;28;20025;-75
2024/02/14 07:00:10;;;;;;;4.35;1.45;;;;;;;;;;5024201;28;20544;-75
2024/02/14 07:02:35;;;;;;;3.10;1.40;;;;;;;;;;5026048;28;20035;-75
2024/02/14 07:05:02;;;;;;;3.92;1.83;;;;;;;;;;5026265;28;20041;-75
2024/02/14 07:07:27;;;;;;;2.58;1.25;;;;;;;;;;5029175;28;20116;-75
2024/02/14 07:09:52;;;;;;;3.00;1.30;;;;;;;;;;5025678;28;20463;-75
2024/02/14 07:12:19;;;;;;;2.55;1.17;;;;;;;;;;5020736;28;20041;-75
2024/02/14 07:14:44;;;;;;;3.00;1.13;;;;;;;;;;5025000;28;20060;-75
2024/02/14 07:17:09;;;;;;;3.30;1.10;;;;;;;;;;5024834;28;20065;-75
2024/02/14 07:19:34;;;;;;;4.75;1.17;;;;;;;;;;5028372;28;20065;-75
2024/02/14 07:21:59;;;;;;;4.53;0.90;;;;;;;;;;5028551;28;20063;-75
2024/02/14 07:24:25;;;;;;;4.13;0.90;;;;;;;;;;5022639;28;20033;-75
2024/02/14 07:26:50;;;;;;;3.55;0.98;;;;;;;;;;5022797;28;20055;-75
2024/02/14 07:29:15;;;;;;;3.78;1.08;;;;;;;;;;5018482;28;20041;-75
2024/02/14 07:31:41;;;;;;;3.60;1.20;;;;;;;;;;5026576;28;20017;-75
2024/02/14 07:34:08;;;;;;;3.60;1.30;;;;;;;;;;5019945;28;20045;-75
2024/02/14 07:36:33;;;;;;;3.78;1.45;;;;;;;;;;5028917;28;20029;-75
2024/02/14 07:38:58;;;;;;;3.17;1.00;;;;;;;;;;5023880;28;20092;-75
2024/02/14 07:41:24;;;;;;;4.13;1.10;;;;;;;;;;5021732;28;20026;-75
2024/02/14 07:43:49;;;;;;;2.30;0.85;;;;;;;;;;5027880;28;20029;-75
2024/02/14 07:46:22;;;;;;;4.15;1.27;;;;;;;;;;5021807;28;20457;-76
2024/02/14 07:48:48;;;;;;;2.88;1.15;;;;;;;;;;5015901;28;20022;-75
2024/02/14 07:51:14;;;;;;;3.92;1.10;;;;;;;;;;5026084;28;20486;-75
2024/02/14 07:53:39;;;;;;;4.72;1.08;;;;;;;;;;5028438;28;20038;-75
2024/02/14 07:56:04;;;;;;;3.30;1.10;;;;;;;;;;5029806;28;20052;-76
2024/02/14 07:58:29;;;;;;;7.18;1.98;;;;;;;;;;5029119;28;20113;-75
2024/02/14 08:00:55;;;;;;;4.65;1.20;;;;;;;;;;5028299;28;20025;-76
2024/02/14 08:03:20;;;;;;;3.38;1.10;;;;;;;;;;5034427;28;20029;-76
2024/02/14 08:05:45;;;;;;;4.43;1.05;;;;;;;;;;5023415;28;20032;-76
2024/02/14 08:08:10;;;;;;;5.68;1.17;;;;;;;;;;5023555;28;20444;-75
2024/02/14 08:10:35;;;;;;;4.07;1.38;;;;;;;;;;5027966;28;20029;-76
2024/02/14 08:13:01;;;;;;;4.55;1.13;;;;;;;;;;5030049;28;20029;-76
2024/02/14 08:15:26;;;;;;;3.15;0.93;;;;;;;;;;5031165;28;20053;-76
2024/02/14 08:17:55;;;;;;;3.90;1.30;;;;;;;;;;5032531;28;20401;-75
2024/02/14 08:20:20;;;;;;;5.45;1.67;;;;;;;;;;5024841;28;20032;-76
2024/02/14 08:22:45;;;;;;;7.90;2.10;;;;;;;;;;5027574;28;20029;-76
2024/02/14 08:25:11;;;;;;;4.57;1.48;;;;;;;;;;5026460;28;20527;-76
2024/02/14 08:27:36;;;;;;;4.72;1.35;;;;;;;;;;5028924;28;20060;-76
2024/02/14 08:30:02;;;;;;;1.95;1.08;;;;;;;;;;5029671;28;20414;-76
2024/02/14 08:32:27;;;;;;;4.00;1.30;;;;;;;;;;5035353;28;20021;-76
2024/02/14 08:34:52;;;;;;;3.53;1.38;;;;;;;;;;5025886;28;20505;-76
2024/02/14 08:37:17;;;;;;;4.13;1.50;;;;;;;;;;5024822;28;20486;-76
2024/02/14 08:39:42;;;;;;;3.78;1.38;;;;;;;;;;5029118;28;20021;-76
2024/02/14 08:42:08;;;;;;;4.38;1.30;;;;;;;;;;5028477;28;20037;-76
2024/02/14 08:44:40;;;;;;;3.53;1.17;;;;;;;;;;5031603;28;20032;-76
2024/02/14 08:47:06;;;;;;;4.00;1.50;;;;;;;;;;5026178;28;20087;-76
2024/02/14 08:49:31;;;;;;;2.65;1.20;;;;;;;;;;5025823;28;20030;-76
2024/02/14 08:51:56;;;;;;;4.43;1.23;;;;;;;;;;5026043;28;20034;-76
2024/02/14 08:54:23;;;;;;;2.73;1.23;;;;;;;;;;5026924;28;20612;-76
2024/02/14 08:56:48;;;;;;;3.75;1.58;;;;;;;;;;5033746;28;20275;-76
2024/02/14 08:59:13;;;;;;;3.85;1.90;;;;;;;;;;5030774;28;20036;-76
2024/02/14 09:01:39;;;;;;;6.15;1.70;;;;;;;;;;5024735;28;20043;-76
2024/02/14 09:04:04;;;;;;;3.47;1.35;;;;;;;;;;5029504;28;20079;-76
2024/02/14 09:06:29;;;;;;;3.20;1.20;;;;;;;;;;5031252;28;20065;-76
2024/02/14 09:08:55;;;;;;;4.72;1.40;;;;;;;;;;5027432;28;20049;-76
2024/02/14 09:11:22;;;;;;;3.63;1.10;;;;;;;;;;5029202;28;20104;-76
2024/02/14 09:13:49;;;;;;;3.78;1.42;;;;;;;;;;5030110;28;20049;-76
2024/02/14 09:16:15;;;;;;;3.55;1.60;;;;;;;;;;5024730;28;20038;-76
2024/02/14 09:18:40;;;;;;;4.90;2.38;;;;;;;;;;5026742;28;20382;-76
2024/02/14 09:21:05;;;;;;;7.05;1.73;;;;;;;;;;5024706;28;20033;-76
2024/02/14 09:23:32;;;;;;;4.45;1.25;;;;;;;;;;5027884;28;20038;-76
2024/02/14 09:25:57;;;;;;;4.32;1.42;;;;;;;;;;5026105;28;20099;-75
2024/02/14 09:28:22;;;;;;;4.65;1.20;;;;;;;;;;5030151;28;20030;-75
2024/02/14 09:30:48;;;;;;;4.15;1.40;;;;;;;;;;5023758;28;20060;-76
2024/02/14 09:33:16;;;;;;;5.28;1.23;;;;;;;;;;5027490;28;20053;-75
2024/02/14 09:35:45;;;;;;;3.67;1.40;;;;;;;;;;5026146;28;20029;-76
2024/02/14 09:38:12;;;;;;;5.20;1.60;;;;;;;;;;5024778;28;20286;-75
2024/02/14 09:40:37;;;;;;;4.40;1.38;;;;;;;;;;5028872;28;20091;-75
2024/02/14 09:43:05;;;;;;;5.80;1.77;;;;;;;;;;5026582;28;20448;-75
2024/02/14 09:45:36;;;;;;;5.85;1.90;;;;;;;;;;5023578;28;20708;-75
2024/02/14 09:48:02;;;;;;;4.10;1.70;;;;;;;;;;5024887;28;20026;-75
2024/02/14 09:50:30;;;;;;;4.25;1.35;;;;;;;;;;5027810;28;20033;-75
2024/02/14 09:52:56;;;;;;;3.83;1.23;;;;;;;;;;5029309;28;20045;-75
2024/02/14 09:55:23;;;;;;;2.97;1.10;;;;;;;;;;5027202;28;20112;-76
2024/02/14 09:57:48;;;;;;;2.35;0.88;;;;;;;;;;5020130;28;20025;-76
2024/02/14 10:00:14;;;;;;;2.88;1.13;;;;;;;;;;5019554;28;20037;-76
2024/02/14 10:02:40;;;;;;;3.55;1.10;;;;;;;;;;5030165;28;20029;-76
2024/02/14 10:05:06;;;;;;;4.22;1.17;;;;;;;;;;5026529;28;20762;-75
2024/02/14 10:07:39;;;;;;;2.28;1.02;;;;;;;;;;5027252;28;20060;-75
2024/02/14 10:10:07;;;;;;;3.45;1.15;;;;;;;;;;5023368;28;20482;-75
2024/02/14 10:12:32;;;;;;;3.47;1.00;;;;;;;;;;5022901;28;20096;-76
2024/02/14 10:14:57;;;;;;;3.80;1.23;;;;;;;;;;5025202;28;20394;-76
2024/02/14 10:17:22;;;;;;;4.15;1.02;;;;;;;;;;5025605;28;20041;-75
2024/02/14 10:20:14;;;;;;;3.40;1.08;;;;;;;;;;5028380;28;20053;-75
2024/02/14 10:22:39;;;;;;;3.17;1.00;;;;;;;;;;5029202;28;20124;-76
2024/02/14 10:25:11;;;;;;;4.88;0.90;;;;;;;;;;5021817;28;20112;-75
2024/02/14 10:27:37;;;;;;;;;;;;;;;;;;5024549;28;20033;-75
2024/02/14 10:30:03;;;;;;;2.50;1.08;;;;;;;;;;5024271;28;19996;-75
2024/02/14 10:32:29;;;;;;;3.13;0.90;;;;;;;;;;5028932;28;20091;-75
2024/02/14 10:34:54;;;;;;;2.55;0.90;;;;;;;;;;5029722;28;20029;-75
2024/02/14 10:37:20;;;;;;;3.22;1.10;;;;;;;;;;5026490;28;20478;-75
2024/02/14 10:39:47;;;;;;;4.28;1.00;;;;;;;;;;5023432;28;20041;-75
2024/02/14 10:42:13;;;;;;;5.57;1.10;;;;;;;;;;5023851;28;20436;-76
2024/02/14 10:44:49;;;;;;;2.35;1.00;;;;;;;;;;5023397;28;20041;-75
2024/02/14 10:47:44;;;;;;;2.92;0.85;;;;;;;;;;4988397;23;21322;-75
2024/02/14 10:50:11;;;;;;;3.95;0.90;;;;;;;;;;4966687;28;20515;-75
2024/02/14 10:52:39;;;;;;;3.03;0.82;;;;;;;;;;4967777;28;20026;-75
2024/02/14 10:55:08;;;;;;;3.85;1.02;;;;;;;;;;4968801;28;20499;-75
2024/02/14 10:57:34;;;;;;;4.03;1.13;;;;;;;;;;4961742;28;20506;-75
2024/02/14 11:00:01;;;;;;;5.45;1.17;;;;;;;;;;4960395;28;20042;-75
2024/02/14 11:02:30;;;;;;;3.63;1.10;;;;;;;;;;4959002;28;20043;-77
2024/02/14 11:04:55;;;;;;;4.07;1.20;;;;;;;;;;4961948;28;20035;-77
2024/02/14 11:07:22;;;;;;;2.72;1.02;;;;;;;;;;4969111;28;20035;-77
2024/02/14 11:09:48;;;;;;;4.18;1.10;;;;;;;;;;4965779;28;20062;-77
2024/02/14 11:12:14;;;;;;;3.65;1.08;;;;;;;;;;4958164;28;20059;-77
2024/02/14 11:14:42;;;;;;;3.42;0.80;;;;;;;;;;4955089;28;20030;-77
2024/02/14 11:17:10;;;;;;;4.10;1.10;;;;;;;;;;4953917;28;20488;-76
2024/02/14 11:19:38;;;;;;;3.80;1.00;;;;;;;;;;4959981;28;20113;-76
2024/02/14 11:22:13;;;;;;;3.50;0.85;;;;;;;;;;4959303;28;20027;-77
2024/02/14 11:24:39;;;;;;;5.70;1.17;;;;;;;;;;4958728;28;20034;-76
2024/02/14 11:27:09;;;;;;;4.15;1.15;;;;;;;;;;4967861;28;20037;-76
2024/02/14 11:29:35;;;;;;;5.10;0.80;;;;;;;;;;4976246;28;20047;-76
2024/02/14 11:32:06;;;;;;;4.57;1.08;;;;;;;;;;4952844;28;20050;-76
2024/02/14 11:34:33;;;;;;;3.63;1.10;;;;;;;;;;4967927;28;20049;-76
2024/02/14 11:36:59;;;;;;;3.92;0.90;;;;;;;;;;4958075;28;20035;-76
2024/02/14 11:39:24;;;;;;;2.38;0.70;;;;;;;;;;4967652;28;20030;-76
2024/02/14 11:41:50;;;;;;;4.60;0.98;;;;;;;;;;4955420;28;20074;-76
2024/02/14 11:44:15;;;;;;;3.28;1.13;;;;;;;;;;4966183;28;20058;-76
2024/02/14 11:46:41;;;;;;;3.53;1.10;;;;;;;;;;4961554;28;20043;-76
2024/02/14 11:49:07;;;;;;;3.53;0.90;;;;;;;;;;4966373;28;20031;-75
2024/02/14 11:51:33;;;;;;;4.93;1.05;;;;;;;;;;4969290;28;20031;-75
2024/02/14 11:54:04;;;;;;;2.00;0.85;;;;;;;;;;4956145;28;20436;-75
2024/02/14 11:56:39;;;;;;;3.03;0.90;;;;;;;;;;4955040;28;20408;-76
2024/02/14 11:59:09;;;;;;;3.95;1.00;;;;;;;;;;4957797;28;20590;-76
2024/02/14 12:01:35;;;;;;;4.13;1.08;;;;;;;;;;4959223;28;20026;-78
2024/02/14 12:04:01;;;;;;;2.83;0.82;;;;;;;;;;4956938;28;20039;-76
2024/02/14 12:06:34;;;;;;;4.13;1.70;;;;;;;;;;4958217;28;20046;-76
2024/02/14 12:09:03;;;;;;;7.28;2.05;;;;;;;;;;4960038;28;20891;-77
2024/02/14 12:11:30;;;;;;;4.47;1.80;;;;;;;;;;4969486;28;20396;-76
2024/02/14 12:13:55;;;;;;;4.97;1.00;;;;;;;;;;4952604;28;20039;-76
2024/02/14 12:16:21;;;;;;;4.97;1.43;;;;;;;;;;4958215;28;20026;-76
2024/02/14 12:18:46;;;;;;;2.97;1.20;;;;;;;;;;4962285;28;20289;-76
2024/02/14 12:21:12;;;;;;;5.55;1.40;;;;;;;;;;4965426;28;20035;-77
2024/02/14 12:23:38;;;;;;;5.40;1.30;;;;;;;;;;4972291;28;20042;-76
2024/02/14 12:26:04;;;;;;;4.63;1.55;;;;;;;;;;4960547;28;20031;-76
2024/02/14 12:28:32;;;;;;;5.65;1.20;;;;;;;;;;4960204;28;20046;-76
2024/02/14 12:30:58;;;;;;;3.05;1.10;;;;;;;;;;4971410;28;20046;-76
2024/02/14 12:33:37;;;;;;;5.50;1.65;;;;;;;;;;4969494;28;20029;-76
2024/02/14 12:36:03;;;;;;;3.28;1.23;;;;;;;;;;4961181;28;20037;-76
2024/02/14 12:38:28;;;;;;;2.67;0.95;;;;;;;;;;4958219;28;20114;-76
2024/02/14 12:40:54;;;;;;;2.35;0.80;;;;;;;;;;4959275;28;20058;-76
2024/02/14 12:43:19;;;;;;;4.45;1.10;;;;;;;;;;4960518;28;20462;-74
2024/02/14 12:45:44;;;;;;;3.28;1.02;;;;;;;;;;5004903;23;20515;-76
2024/02/14 12:48:10;;;;;;;3.25;0.88;;;;;;;;;;4998606;28;20129;-76
2024/02/14 12:50:37;;;;;;;3.78;1.35;;;;;;;;;;4997173;28;20114;-75
2024/02/14 12:53:02;;;;;;;3.13;1.02;;;;;;;;;;5001871;28;20045;-75
2024/02/14 12:55:28;;;;;;;5.97;1.10;;;;;;;;;;5000384;28;20034;-76
2024/02/14 12:57:56;;;;;;;2.80;1.13;;;;;;;;;;4989903;28;20026;-76
2024/02/14 13:00:22;;;;;;;3.58;1.08;;;;;;;;;;4994462;28;20057;-76
2024/02/14 13:02:47;;;;;;;4.40;1.08;;;;;;;;;;4999093;28;20037;-76
2024/02/14 13:05:13;;;;;;;4.05;1.33;;;;;;;;;;4995871;28;20088;-76
2024/02/14 13:07:38;;;;;;;4.63;1.50;;;;;;;;;;5003996;28;20055;-76
2024/02/14 13:10:03;;;;;;;4.72;1.40;;;;;;;;;;4996860;28;20029;-76
2024/02/14 13:12:29;;;;;;;5.18;1.35;;;;;;;;;;4993971;28;20073;-76
2024/02/14 13:14:54;;;;;;;4.85;1.30;;;;;;;;;;4996045;28;20030;-76
2024/02/14 13:17:19;;;;;;;4.25;1.30;;;;;;;;;;4996966;28;20033;-76
2024/02/14 13:19:45;;;;;;;3.47;1.17;;;;;;;;;;4995479;28;20574;-76
2024/02/14 13:22:10;;;;;;;3.65;1.25;;;;;;;;;;5002778;28;20285;-76
2024/02/14 13:24:36;;;;;;;5.03;1.40;;;;;;;;;;5002050;28;20430;-76
2024/02/14 13:27:01;;;;;;;4.55;1.15;;;;;;;;;;4995977;28;20109;-76
2024/02/14 13:29:26;;;;;;;3.63;1.27;;;;;;;;;;5002076;28;20026;-76
2024/02/14 13:31:52;;;;;;;3.83;1.30;;;;;;;;;;4998208;28;20026;-76
2024/02/14 13:34:21;;;;;;;4.88;1.50;;;;;;;;;;4997440;28;20041;-76
2024/02/14 13:36:47;;;;;;;3.13;1.33;;;;;;;;;;4999234;28;20065;-76
2024/02/14 13:39:12;;;;;;;2.92;0.80;;;;;;;;;;4995103;28;20077;-76
2024/02/14 13:41:38;;;;;;;2.28;0.88;;;;;;;;;;4994219;28;20027;-76
2024/02/14 13:44:04;;;;;;;4.32;1.10;;;;;;;;;;5005610;28;20034;-76
2024/02/14 13:46:29;;;;;;;2.78;0.90;;;;;;;;;;4995474;28;20044;-76
2024/02/14 13:48:54;;;;;;;2.23;0.90;;;;;;;;;;5001376;28;20042;-76
2024/02/14 13:51:20;;;;;;;5.60;1.13;;;;;;;;;;4999076;28;20277;-77
2024/02/14 13:53:45;;;;;;;4.60;1.33;;;;;;;;;;4996561;28;20030;-77
2024/02/14 13:56:11;;;;;;;3.53;1.40;;;;;;;;;;4995097;28;20458;-76
2024/02/14 13:58:38;;;;;;;5.00;1.20;;;;;;;;;;5002193;28;20579;-76
2024/02/14 14:01:04;;;;;;;4.63;0.93;;;;;;;;;;4997879;28;20379;-76
2024/02/14 14:03:29;;;;;;;2.28;1.02;;;;;;;;;;4997593;28;20065;-76
2024/02/14 14:05:56;;;;;;;4.95;0.98;;;;;;;;;;4999006;28;20050;-76
2024/02/14 14:08:21;;;;;;;3.00;0.80;;;;;;;;;;4999769;28;20088;-76
2024/02/14 14:10:47;;;;;;;2.00;1.08;;;;;;;;;;5003198;28;20441;-76
2024/02/14 14:13:13;;;;;;;1.48;0.68;;;;;;;;;;4997443;28;20141;-76
2024/02/14 14:15:39;;;;;;;3.17;0.90;;;;;;;;;;4994082;28;20031;-76
2024/02/14 14:18:04;;;;;;;2.78;0.82;;;;;;;;;;4999891;28;20092;-76
2024/02/14 14:20:29;;;;;;;3.03;0.85;;;;;;;;;;4998843;28;20112;-76
2024/02/14 14:22:54;;;;;;;2.10;0.77;;;;;;;;;;4992068;28;20120;-76
2024/02/14 14:25:19;;;;;;;4.10;1.35;;;;;;;;;;4997608;28;20034;-76
2024/02/14 14:27:45;;;;;;;3.13;0.93;;;;;;;;;;5002734;28;20037;-76
2024/02/14 14:30:11;;;;;;;3.47;0.95;;;;;;;;;;4993481;28;20378;-76
2024/02/14 14:32:36;;;;;;;4.43;1.35;;;;;;;;;;4997569;28;20033;-76
2024/02/14 14:35:02;;;;;;;1.83;0.73;;;;;;;;;;4998764;28;20030;-76